createdAt,value
2018-01-03T00:00:13.717Z,7.47
2018-01-03T00:02:41.182Z,12.03
2018-01-03T00:05:08.640Z,9.20
2018-01-03T00:07:36.093Z,10.43
2018-01-03T00:10:03.559Z,11.97
2018-01-03T00:12:31.035Z,7.73
2018-01-03T00:14:58.521Z,6.87
2018-01-03T00:17:25.976Z,6.30
2018-01-03T00:19:53.437Z,7.63
2018-01-03T00:22:20.891Z,7.60
2018-01-03T00:24:48.377Z,8.00
2018-01-03T00:27:15.856Z,9.33
2018-01-03T00:29:43.317Z,8.50
2018-01-03T00:32:10.843Z,6.83
2018-01-03T00:34:38.440Z,4.47
2018-01-03T00:37:05.965Z,6.60
2018-01-03T00:39:33.520Z,6.37
2018-01-03T00:42:00.970Z,4.70
2018-01-03T00:44:28.436Z,5.87
2018-01-03T00:46:55.886Z,5.43
2018-01-03T00:49:23.344Z,6.00
2018-01-03T00:51:50.808Z,6.70
2018-01-03T00:54:18.272Z,7.37
2018-01-03T00:56:45.813Z,6.33
2018-01-03T00:59:13.273Z,7.83
2018-01-03T01:01:40.741Z,5.43
2018-01-03T01:04:08.203Z,3.37
2018-01-03T01:06:35.670Z,6.13
2018-01-03T01:09:03.152Z,7.77
2018-01-03T01:11:30.592Z,4.57
2018-01-03T01:13:58.061Z,6.37
2018-01-03T01:16:25.510Z,4.20
2018-01-03T01:18:52.981Z,5.40
2018-01-03T01:21:20.433Z,5.33
2018-01-03T01:23:47.889Z,4.43
2018-01-03T01:26:15.339Z,4.47
2018-01-03T01:28:42.808Z,5.97
2018-01-03T01:31:10.256Z,6.60
2018-01-03T01:33:37.718Z,5.43
2018-01-03T01:36:05.190Z,5.73
2018-01-03T01:38:32.632Z,4.67
2018-01-03T01:41:00.093Z,4.33
2018-01-03T01:43:27.545Z,5.57
2018-01-03T01:45:55.001Z,4.27
2018-01-03T01:48:22.547Z,6.27
2018-01-03T01:50:50.032Z,5.97
2018-01-03T01:53:17.649Z,4.17
2018-01-03T01:55:45.134Z,5.03
2018-01-03T01:58:12.582Z,4.70
2018-01-03T02:00:40.056Z,2.77
2018-01-03T02:03:07.502Z,3.33
2018-01-03T02:05:34.968Z,5.00
2018-01-03T02:08:02.425Z,2.63
2018-01-03T02:10:29.885Z,4.00
2018-01-03T02:12:57.345Z,5.47
2018-01-03T02:15:24.797Z,5.07
2018-01-03T02:17:52.265Z,4.10
2018-01-03T02:20:19.713Z,4.93
2018-01-03T02:22:47.175Z,5.50
2018-01-03T02:25:14.622Z,3.13
2018-01-03T02:27:42.088Z,3.60
2018-01-03T02:30:09.547Z,4.63
2018-01-03T02:32:37.019Z,3.13
2018-01-03T02:35:04.456Z,4.93
2018-01-03T02:37:31.930Z,2.27
2018-01-03T02:39:59.376Z,4.77
2018-01-03T02:42:26.824Z,3.80
2018-01-03T02:44:54.276Z,3.10
2018-01-03T02:47:21.733Z,3.93
2018-01-03T02:49:49.188Z,5.50
2018-01-03T02:52:16.648Z,3.63
2018-01-03T02:54:44.101Z,6.43
2018-01-03T02:57:11.603Z,3.70
2018-01-03T02:59:39.038Z,3.20
2018-01-03T03:02:06.497Z,3.47
2018-01-03T03:04:33.960Z,4.43
2018-01-03T03:07:01.535Z,3.30
2018-01-03T03:09:29.296Z,2.70
2018-01-03T03:11:56.761Z,4.33
2018-01-03T03:14:24.213Z,5.67
2018-01-03T03:16:51.717Z,6.90
2018-01-03T03:19:19.153Z,4.57
2018-01-03T03:21:46.794Z,3.97
2018-01-03T03:24:14.252Z,3.13
2018-01-03T03:26:42.472Z,3.77
2018-01-03T03:29:10.262Z,3.37
2018-01-03T03:31:38.595Z,3.77
2018-01-03T03:34:06.281Z,5.20
2018-01-03T03:36:33.744Z,4.83
2018-01-03T03:39:01.201Z,3.97
2018-01-03T03:41:28.664Z,6.33
2018-01-03T03:43:56.120Z,5.13
2018-01-03T03:46:23.581Z,4.77
2018-01-03T03:48:51.041Z,4.97
2018-01-03T03:51:18.501Z,4.23
2018-01-03T03:53:45.958Z,3.70
2018-01-03T03:56:13.447Z,2.33
2018-01-03T03:58:40.900Z,2.67
2018-01-03T04:01:08.534Z,5.00
2018-01-03T04:03:35.992Z,2.87
2018-01-03T04:06:03.456Z,3.33
2018-01-03T04:08:30.930Z,4.87
2018-01-03T04:10:58.392Z,2.67
2018-01-03T04:13:25.854Z,3.67
2018-01-03T04:15:53.516Z,2.70
2018-01-03T04:18:20.985Z,5.07
2018-01-03T04:20:49.235Z,4.37
2018-01-03T04:23:16.696Z,3.00
2018-01-03T04:25:44.156Z,3.63
2018-01-03T04:28:11.696Z,5.60
2018-01-03T04:30:39.243Z,4.07
2018-01-03T04:33:06.692Z,2.90
2018-01-03T04:35:34.185Z,4.20
2018-01-03T04:38:01.626Z,4.37
2018-01-03T04:40:29.082Z,3.80
2018-01-03T04:42:56.540Z,3.57
2018-01-03T04:45:24.013Z,4.13
2018-01-03T04:47:51.472Z,7.27
2018-01-03T04:50:19.149Z,4.47
2018-01-03T04:52:46.592Z,3.67
2018-01-03T04:55:14.070Z,1.37
2018-01-03T04:57:41.573Z,3.00
2018-01-03T05:00:09.029Z,1.97
2018-01-03T05:02:36.472Z,1.53
2018-01-03T05:05:04.708Z,5.43
2018-01-03T05:07:32.182Z,5.33
2018-01-03T05:09:59.677Z,4.33
2018-01-03T05:12:27.141Z,3.40
2018-01-03T05:14:54.622Z,5.33
2018-01-03T05:17:22.325Z,3.47
2018-01-03T05:19:49.793Z,4.23
2018-01-03T05:22:17.464Z,3.67
2018-01-03T05:24:44.937Z,3.07
2018-01-03T05:27:12.386Z,2.60
2018-01-03T05:29:39.840Z,3.60
2018-01-03T05:32:07.297Z,1.53
2018-01-03T05:34:34.812Z,5.27
2018-01-03T05:37:02.252Z,2.43
2018-01-03T05:39:29.709Z,2.10
2018-01-03T05:41:57.369Z,4.03
2018-01-03T05:44:24.828Z,4.40
2018-01-03T05:46:52.288Z,4.13
2018-01-03T05:49:19.808Z,1.47
2018-01-03T05:51:47.272Z,3.60
2018-01-03T05:54:14.733Z,3.53
2018-01-03T05:56:42.216Z,1.30
2018-01-03T05:59:09.653Z,1.73
2018-01-03T06:01:37.149Z,2.33
2018-01-03T06:04:04.637Z,4.50
2018-01-03T06:06:32.097Z,4.53
2018-01-03T06:08:59.551Z,2.57
2018-01-03T06:11:27.011Z,4.03
2018-01-03T06:13:54.462Z,4.40
2018-01-03T06:16:21.923Z,2.73
2018-01-03T06:18:50.293Z,2.27
2018-01-03T06:21:17.794Z,3.23
2018-01-03T06:23:45.243Z,3.40
2018-01-03T06:26:12.732Z,3.50
2018-01-03T06:28:40.185Z,1.80
2018-01-03T06:31:07.636Z,3.67
2018-01-03T06:33:35.101Z,2.77
2018-01-03T06:36:02.553Z,3.63
2018-01-03T06:38:30.009Z,2.87
2018-01-03T06:40:57.721Z,3.17
2018-01-03T06:43:25.200Z,2.73
2018-01-03T06:45:52.652Z,3.40
2018-01-03T06:48:20.111Z,2.17
2018-01-03T06:50:47.556Z,2.03
2018-01-03T06:53:15.018Z,1.67
2018-01-03T06:55:42.475Z,2.47
2018-01-03T06:58:09.939Z,2.20
2018-01-03T07:00:37.585Z,3.13
2018-01-03T07:03:05.056Z,4.10
2018-01-03T07:05:32.517Z,4.40
2018-01-03T07:07:59.966Z,3.87
2018-01-03T07:10:27.420Z,4.37
2018-01-03T07:12:55.151Z,2.73
2018-01-03T07:15:22.592Z,4.00
2018-01-03T07:17:50.100Z,5.00
2018-01-03T07:20:17.575Z,2.67
2018-01-03T07:22:45.026Z,5.40
2018-01-03T07:25:12.505Z,3.70
2018-01-03T07:27:39.962Z,3.80
2018-01-03T07:30:07.412Z,1.73
2018-01-03T07:32:34.894Z,3.37
2018-01-03T07:35:02.357Z,3.27
2018-01-03T07:37:29.812Z,3.97
2018-01-03T07:39:57.276Z,4.10
2018-01-03T07:42:24.725Z,3.37
2018-01-03T07:44:52.187Z,2.90
2018-01-03T07:47:19.663Z,3.97
2018-01-03T07:49:47.114Z,2.47
2018-01-03T07:52:14.565Z,6.37
2018-01-03T07:54:42.078Z,2.27
2018-01-03T07:57:09.526Z,2.83
2018-01-03T07:59:36.988Z,2.70
2018-01-03T08:02:04.442Z,3.63
2018-01-03T08:04:31.902Z,5.10
2018-01-03T08:06:59.352Z,2.77
2018-01-03T08:09:26.814Z,5.43
2018-01-03T08:11:54.271Z,7.60
2018-01-03T08:14:21.724Z,3.07
2018-01-03T08:16:49.180Z,5.33
2018-01-03T08:19:16.675Z,4.20
2018-01-03T08:21:44.101Z,6.33
2018-01-03T08:24:11.553Z,5.07
2018-01-03T08:26:39.009Z,7.00
2018-01-03T08:29:06.469Z,5.87
2018-01-03T08:31:34.268Z,9.00
2018-01-03T08:34:01.724Z,6.90
2018-01-03T08:36:29.177Z,9.30
2018-01-03T08:38:56.642Z,17.13
2018-01-03T08:41:24.097Z,11.60
2018-01-03T08:43:51.549Z,14.30
2018-01-03T08:46:19.012Z,6.90
2018-01-03T08:48:46.462Z,8.23
2018-01-03T08:51:13.921Z,13.07
2018-01-03T08:53:41.374Z,6.17
2018-01-03T08:56:08.833Z,11.73
2018-01-03T08:58:36.288Z,7.60
2018-01-03T09:01:03.763Z,26.27
2018-01-03T09:03:31.204Z,6.67
2018-01-03T09:05:58.690Z,7.87
2018-01-03T09:08:26.141Z,10.80
2018-01-03T09:10:53.597Z,6.07
2018-01-03T09:13:21.057Z,6.50
2018-01-03T09:15:48.516Z,7.10
2018-01-03T09:18:15.974Z,9.60
2018-01-03T09:20:43.455Z,10.67
2018-01-03T09:23:11.188Z,7.73
2018-01-03T09:25:38.664Z,6.10
2018-01-03T09:28:06.121Z,7.97
2018-01-03T09:30:33.749Z,5.53
2018-01-03T09:33:01.215Z,7.70
2018-01-03T09:35:28.668Z,4.87
2018-01-03T09:37:56.139Z,13.33
2018-01-03T09:40:23.602Z,12.47
2018-01-03T09:42:51.073Z,17.30
2018-01-03T09:45:18.525Z,20.87
2018-01-03T09:47:46.761Z,15.13
2018-01-03T09:50:14.217Z,7.77
2018-01-03T09:52:41.673Z,8.63
2018-01-03T09:55:09.145Z,12.03
2018-01-03T09:57:36.641Z,10.17
2018-01-03T10:00:04.728Z,13.53
2018-01-03T10:02:32.976Z,12.67
2018-01-03T10:05:00.416Z,9.20
2018-01-03T10:07:27.880Z,9.17
2018-01-03T10:09:55.357Z,10.43
2018-01-03T10:12:22.824Z,11.67
2018-01-03T10:14:50.281Z,13.50
2018-01-03T10:17:17.733Z,8.90
2018-01-03T10:19:45.185Z,9.33
2018-01-03T10:22:12.646Z,15.77
2018-01-03T10:24:40.105Z,7.60
2018-01-03T10:27:07.588Z,9.53
2018-01-03T10:29:35.018Z,10.37
2018-01-03T10:32:02.481Z,12.90
2018-01-03T10:34:29.989Z,13.73
2018-01-03T10:36:57.616Z,14.17
2018-01-03T10:39:27.430Z,12.87
2018-01-03T10:41:55.656Z,11.20
2018-01-03T10:44:23.126Z,11.23
2018-01-03T10:46:50.612Z,12.47
2018-01-03T10:49:18.349Z,11.40
2018-01-03T10:51:45.812Z,14.63
2018-01-03T10:54:13.288Z,12.00
2018-01-03T10:56:40.733Z,9.57
2018-01-03T10:59:08.192Z,11.20
2018-01-03T11:01:35.669Z,11.23
2018-01-03T11:04:03.151Z,12.87
2018-01-03T11:06:30.591Z,13.87
2018-01-03T11:08:58.179Z,18.57
2018-01-03T11:11:25.633Z,18.07
2018-01-03T11:13:53.088Z,19.27
2018-01-03T11:16:20.560Z,16.63
2018-01-03T11:18:48.797Z,18.13
2018-01-03T11:21:16.269Z,17.53
2018-01-03T11:23:43.727Z,16.87
2018-01-03T11:26:11.393Z,14.67
2018-01-03T11:28:38.885Z,14.80
2018-01-03T11:31:06.677Z,15.80
2018-01-03T11:33:34.120Z,9.50
2018-01-03T11:36:01.617Z,16.10
2018-01-03T11:38:29.085Z,23.60
2018-01-03T11:40:56.584Z,14.43
2018-01-03T11:43:24.053Z,15.57
2018-01-03T11:45:51.504Z,13.67
2018-01-03T11:48:18.968Z,10.53
2018-01-03T11:50:46.573Z,13.93
2018-01-03T11:53:14.015Z,15.53
2018-01-03T11:55:41.488Z,9.70
2018-01-03T11:58:08.949Z,12.27
2018-01-03T12:00:36.404Z,11.33
2018-01-03T12:03:03.861Z,12.23
2018-01-03T12:05:31.386Z,14.37
2018-01-03T12:07:58.837Z,13.53
2018-01-03T12:10:26.309Z,12.23
2018-01-03T12:12:54.064Z,12.13
2018-01-03T12:15:21.768Z,11.40
2018-01-03T12:17:49.247Z,15.13
2018-01-03T12:20:16.730Z,10.67
2018-01-03T12:22:44.209Z,14.47
2018-01-03T12:25:11.661Z,14.13
2018-01-03T12:27:39.149Z,12.17
2018-01-03T12:30:06.605Z,17.47
2018-01-03T12:32:34.418Z,13.10
2018-01-03T12:35:01.871Z,15.70
2018-01-03T12:37:29.333Z,11.50
2018-01-03T12:39:56.789Z,12.67
2018-01-03T12:42:24.264Z,13.53
2018-01-03T12:44:51.718Z,12.30
2018-01-03T12:47:20.004Z,12.90
2018-01-03T12:49:47.459Z,16.93
2018-01-03T12:52:14.917Z,15.60
2018-01-03T12:54:42.380Z,13.60
2018-01-03T12:57:09.837Z,15.57
2018-01-03T12:59:37.293Z,19.67
2018-01-03T13:02:04.807Z,19.10
2018-01-03T13:04:32.293Z,12.83
2018-01-03T13:06:59.768Z,18.80
2018-01-03T13:09:27.243Z,19.13
2018-01-03T13:11:54.702Z,10.47
2018-01-03T13:14:22.393Z,12.90
2018-01-03T13:16:50.041Z,11.53
2018-01-03T13:19:17.513Z,11.50
2018-01-03T13:21:45.729Z,14.47
2018-01-03T13:24:13.346Z,11.57
2018-01-03T13:26:40.801Z,9.10
2018-01-03T13:29:08.268Z,10.87
2018-01-03T13:31:35.747Z,12.33
2018-01-03T13:34:03.213Z,6.60
2018-01-03T13:36:30.656Z,9.83
2018-01-03T13:38:58.121Z,9.80
2018-01-03T13:41:25.572Z,11.37
2018-01-03T13:43:53.030Z,12.80
2018-01-03T13:46:20.493Z,10.20
2018-01-03T13:48:47.944Z,11.33
2018-01-03T13:51:15.393Z,7.03
2018-01-03T13:53:42.868Z,12.17
2018-01-03T13:56:10.326Z,13.80
2018-01-03T13:58:37.783Z,9.53
2018-01-03T14:01:05.241Z,8.30
2018-01-03T14:03:32.692Z,12.70
2018-01-03T14:06:00.156Z,7.93
2018-01-03T14:08:27.609Z,11.10
2018-01-03T14:10:55.070Z,9.77
2018-01-03T14:13:22.512Z,6.57
2018-01-03T14:15:49.968Z,6.97
2018-01-03T14:18:17.413Z,6.77
2018-01-03T14:20:44.885Z,10.77
2018-01-03T14:23:12.340Z,9.53
2018-01-03T14:25:39.788Z,13.10
2018-01-03T14:28:07.249Z,14.47
2018-01-03T14:30:34.713Z,14.43
2018-01-03T14:33:02.169Z,13.60
2018-01-03T14:35:30.403Z,14.20
2018-01-03T14:37:58.006Z,23.13
2018-01-03T14:40:25.485Z,15.70
2018-01-03T14:42:52.955Z,15.97
2018-01-03T14:45:20.422Z,11.77
2018-01-03T14:47:47.868Z,9.23
2018-01-03T14:50:15.326Z,12.70
2018-01-03T14:52:42.772Z,8.97
2018-01-03T14:55:10.251Z,10.37
2018-01-03T14:57:37.704Z,8.40
2018-01-03T15:00:05.184Z,12.77
2018-01-03T15:02:32.653Z,10.80
2018-01-03T15:05:00.874Z,13.23
2018-01-03T15:07:29.092Z,9.67
2018-01-03T15:09:56.576Z,12.93
2018-01-03T15:12:24.053Z,8.10
2018-01-03T15:14:51.553Z,12.47
2018-01-03T15:17:19.012Z,10.00
2018-01-03T15:19:46.473Z,9.27
2018-01-03T15:22:13.954Z,9.53
2018-01-03T15:24:41.411Z,8.73
2018-01-03T15:27:08.886Z,14.50
2018-01-03T15:29:36.333Z,8.63
2018-01-03T15:32:03.812Z,10.27
2018-01-03T15:34:31.280Z,10.00
2018-01-03T15:36:58.928Z,5.40
2018-01-03T15:39:26.382Z,5.67
2018-01-03T15:41:53.844Z,5.17
2018-01-03T15:44:21.299Z,9.70
2018-01-03T15:46:48.768Z,9.17
2018-01-03T15:49:16.215Z,9.80
2018-01-03T15:51:43.676Z,13.33
2018-01-03T15:54:11.134Z,9.57
2018-01-03T15:56:38.584Z,9.07
2018-01-03T15:59:06.056Z,12.10
2018-01-03T16:01:33.517Z,11.97
2018-01-03T16:04:00.977Z,14.30
2018-01-03T16:06:28.447Z,12.80
2018-01-03T16:08:55.909Z,12.03
2018-01-03T16:11:23.369Z,14.27
2018-01-03T16:13:50.857Z,12.07
2018-01-03T16:16:18.309Z,13.93
2018-01-03T16:18:45.840Z,15.90
2018-01-03T16:21:14.064Z,11.67
2018-01-03T16:23:41.525Z,17.67
2018-01-03T16:26:08.981Z,21.17
2018-01-03T16:28:36.436Z,8.57
2018-01-03T16:31:03.893Z,20.73
2018-01-03T16:33:31.356Z,15.43
2018-01-03T16:35:58.817Z,13.37
2018-01-03T16:38:26.596Z,9.33
2018-01-03T16:40:54.041Z,11.53
2018-01-03T16:43:21.503Z,8.43
2018-01-03T16:45:48.964Z,17.03
2018-01-03T16:48:16.427Z,14.83
2018-01-03T16:50:43.872Z,15.63
2018-01-03T16:53:11.349Z,10.43
2018-01-03T16:55:38.807Z,13.63
2018-01-03T16:58:06.341Z,12.40
2018-01-03T17:00:33.839Z,13.80
2018-01-03T17:03:01.296Z,16.03
2018-01-03T17:05:28.768Z,13.07
2018-01-03T17:07:56.982Z,12.27
2018-01-03T17:10:24.452Z,13.40
2018-01-03T17:12:51.924Z,14.73
2018-01-03T17:15:19.386Z,10.50
2018-01-03T17:17:46.832Z,12.97
2018-01-03T17:20:14.291Z,10.67
2018-01-03T17:22:41.748Z,14.33
2018-01-03T17:25:09.248Z,10.90
2018-01-03T17:27:36.760Z,9.47
2018-01-03T17:30:04.222Z,9.63
2018-01-03T17:32:31.681Z,12.77
2018-01-03T17:34:59.190Z,9.07
2018-01-03T17:37:27.405Z,12.93
2018-01-03T17:39:54.879Z,8.23
2018-01-03T17:42:22.341Z,8.13
2018-01-03T17:44:49.809Z,13.87
2018-01-03T17:47:17.270Z,20.07
2018-01-03T17:49:44.725Z,12.77
2018-01-03T17:52:12.421Z,11.20
2018-01-03T17:54:40.264Z,8.97
2018-01-03T17:57:07.989Z,9.87
2018-01-03T17:59:35.700Z,16.73
2018-01-03T18:02:04.364Z,10.17
2018-01-03T18:04:37.512Z,14.33
2018-01-03T18:07:05.437Z,10.03
2018-01-03T18:09:32.904Z,9.47
2018-01-03T18:12:00.356Z,11.73
2018-01-03T18:14:27.893Z,12.20
2018-01-03T18:16:55.373Z,12.27
2018-01-03T18:19:22.826Z,12.93
2018-01-03T18:21:50.289Z,10.20
2018-01-03T18:24:17.737Z,10.77
2018-01-03T18:26:45.205Z,13.93
2018-01-03T18:29:12.652Z,10.87
2018-01-03T18:31:40.121Z,7.30
2018-01-03T18:34:07.574Z,9.00
2018-01-03T18:36:35.036Z,9.07
2018-01-03T18:39:02.488Z,9.33
2018-01-03T18:41:29.960Z,12.60
2018-01-03T18:43:57.417Z,9.87
2018-01-03T18:46:24.876Z,14.37
2018-01-03T18:48:52.337Z,11.03
2018-01-03T18:51:19.788Z,16.30
2018-01-03T18:53:47.245Z,26.73
2018-01-03T18:56:15.105Z,13.53
2018-01-03T18:58:42.555Z,9.03
2018-01-03T19:01:10.119Z,11.50
2018-01-03T19:03:38.033Z,15.70
2018-01-03T19:06:05.568Z,10.10
2018-01-03T19:08:33.812Z,10.97
2018-01-03T19:11:01.361Z,15.33
2018-01-03T19:13:29.127Z,12.80
2018-01-03T19:15:56.617Z,9.93
2018-01-03T19:18:24.246Z,14.03
2018-01-03T19:20:51.817Z,11.77
2018-01-03T19:23:19.473Z,12.23
2018-01-03T19:25:47.727Z,10.53
2018-01-03T19:28:15.253Z,13.33
2018-01-03T19:30:42.733Z,13.70
2018-01-03T19:33:10.204Z,10.70
2018-01-03T19:35:37.637Z,8.50
2018-01-03T19:38:05.120Z,10.97
2018-01-03T19:40:32.881Z,11.07
2018-01-03T19:43:00.444Z,9.23
2018-01-03T19:45:27.891Z,8.80
2018-01-03T19:47:55.361Z,9.97
2018-01-03T19:50:23.264Z,11.87
2018-01-03T19:52:51.620Z,12.13
2018-01-03T19:55:19.121Z,14.53
2018-01-03T19:57:46.734Z,11.60
2018-01-03T20:00:14.192Z,10.97
2018-01-03T20:02:41.651Z,13.27
2018-01-03T20:05:09.109Z,9.00
2018-01-03T20:07:36.572Z,11.60
2018-01-03T20:10:04.113Z,10.87
2018-01-03T20:12:31.797Z,16.83
2018-01-03T20:14:59.870Z,14.03
2018-01-03T20:17:27.657Z,15.20
2018-01-03T20:19:55.128Z,14.93
2018-01-03T20:22:22.816Z,16.67
2018-01-03T20:24:50.326Z,10.73
2018-01-03T20:27:18.056Z,8.93
2018-01-03T20:29:45.533Z,11.73
2018-01-03T20:32:12.989Z,14.57
2018-01-03T20:34:40.481Z,12.37
2018-01-03T20:37:07.929Z,13.53
2018-01-03T20:39:35.389Z,10.37
2018-01-03T20:42:02.851Z,13.87
2018-01-03T20:44:30.435Z,13.20
2018-01-03T20:46:57.977Z,10.87
2018-01-03T20:49:25.436Z,13.27
2018-01-03T20:51:52.901Z,16.00
2018-01-03T20:54:20.371Z,15.20
2018-01-03T20:56:48.045Z,16.33
2018-01-03T20:59:15.521Z,15.97
2018-01-03T21:01:42.968Z,12.97
2018-01-03T21:04:10.437Z,14.17
2018-01-03T21:06:37.892Z,11.77
2018-01-03T21:09:05.381Z,13.13
2018-01-03T21:11:32.826Z,10.00
2018-01-03T21:14:00.289Z,9.57
2018-01-03T21:16:27.753Z,12.33
2018-01-03T21:18:55.213Z,12.93
2018-01-03T21:21:22.672Z,16.17
2018-01-03T21:23:50.529Z,13.80
2018-01-03T21:26:18.280Z,12.67
2018-01-03T21:28:45.760Z,21.17
2018-01-03T21:31:13.224Z,9.90
2018-01-03T21:33:40.682Z,14.37
2018-01-03T21:36:08.145Z,18.60
2018-01-03T21:38:36.270Z,14.90
2018-01-03T21:41:04.496Z,8.97
2018-01-03T21:43:31.954Z,13.00
2018-01-03T21:45:59.416Z,14.97
2018-01-03T21:48:26.878Z,13.27
2018-01-03T21:50:54.364Z,13.53
2018-01-03T21:53:21.833Z,12.47
2018-01-03T21:55:49.296Z,10.27
2018-01-03T21:58:16.749Z,12.87
2018-01-03T22:00:44.491Z,13.00
2018-01-03T22:03:11.950Z,11.33
2018-01-03T22:05:39.400Z,10.90
2018-01-03T22:08:06.857Z,13.23
2018-01-03T22:10:34.317Z,10.83
2018-01-03T22:13:01.772Z,12.57
2018-01-03T22:15:29.252Z,7.10
2018-01-03T22:17:56.857Z,8.47
2018-01-03T22:20:24.345Z,13.50
2018-01-03T22:22:51.801Z,14.60
2018-01-03T22:25:19.259Z,7.63
2018-01-03T22:27:46.714Z,9.13
2018-01-03T22:30:14.178Z,8.00
2018-01-03T22:32:41.657Z,12.40
2018-01-03T22:35:09.116Z,8.37
2018-01-03T22:37:36.576Z,9.27
2018-01-03T22:40:04.052Z,10.77
2018-01-03T22:42:32.316Z,6.63
2018-01-03T22:45:00.536Z,7.83
2018-01-03T22:47:27.992Z,6.30
2018-01-03T22:49:55.444Z,8.73
2018-01-03T22:52:22.898Z,10.00
2018-01-03T22:54:50.364Z,9.80
2018-01-03T22:57:17.828Z,7.73
2018-01-03T22:59:45.297Z,7.97
2018-01-03T23:02:12.805Z,8.57
2018-01-03T23:04:40.281Z,7.47
2018-01-03T23:07:07.738Z,8.00
2018-01-03T23:09:35.197Z,6.60
2018-01-03T23:12:02.648Z,7.03
2018-01-03T23:14:30.107Z,4.60
2018-01-03T23:16:57.552Z,7.47
2018-01-03T23:19:25.019Z,6.60
2018-01-03T23:21:52.637Z,5.40
2018-01-03T23:24:20.101Z,8.57
2018-01-03T23:26:47.570Z,6.43
2018-01-03T23:29:15.025Z,8.70
2018-01-03T23:31:42.593Z,9.67
2018-01-03T23:34:10.053Z,6.03
2018-01-03T23:36:37.832Z,7.90
2018-01-03T23:39:05.573Z,9.83
2018-01-03T23:41:33.029Z,5.47
2018-01-03T23:44:00.485Z,8.37
2018-01-03T23:46:27.943Z,6.97
2018-01-03T23:48:55.405Z,7.27
2018-01-03T23:51:22.857Z,4.90
2018-01-03T23:53:50.325Z,5.67
2018-01-03T23:56:17.769Z,7.60
2018-01-03T23:58:45.229Z,5.27
